Time;durP1;ratioP1;P1;durP2;ratioP2;P2;SDS_P1;SDS_P2;PMS_P1;PMS_P2;Temp;Humidity;BMP_temperature;BMP_pressure;BME280_temperature;BME280_humidity;BME280_pressure;Samples;Min_cycle;Max_cycle;Signal;HPM_P1;HPM_P2
2021/05/14 00:00:46;;;;;;;2.85;1.50;;;;;;;5.75;91.94;96008.78;4985892;28;20120;-59
2021/05/14 00:03:12;;;;;;;5.53;2.20;;;;;;;5.92;92.35;96012.28;4998074;28;20042;-58
2021/05/14 00:05:38;;;;;;;6.53;2.30;;;;;;;5.87;91.97;96009.81;5003404;28;20589;-60
2021/05/14 00:08:04;;;;;;;3.85;1.92;;;;;;;5.81;92.12;96003.88;4999686;28;20128;-71
2021/05/14 00:10:30;;;;;;;3.60;1.95;;;;;;;5.80;92.75;96010.47;5002527;28;20058;-60
2021/05/14 00:12:56;;;;;;;9.55;4.75;;;;;;;5.80;92.91;96002.31;5003349;28;20049;-62
2021/05/14 00:15:22;;;;;;;10.48;4.50;;;;;;;5.69;92.92;96014.84;4992903;28;20046;-62
2021/05/14 00:17:49;;;;;;;4.95;2.38;;;;;;;5.34;94.21;96012.81;4963850;28;20575;-64
2021/05/14 00:20:15;;;;;;;3.38;2.20;;;;;;;4.98;96.19;96011.88;5003541;28;20072;-57
2021/05/14 00:22:40;;;;;;;2.78;2.03;;;;;;;4.95;96.65;95996.28;5007949;28;20038;-59
2021/05/14 00:25:07;;;;;;;6.32;2.42;;;;;;;4.87;97.13;95999.97;4997996;28;20049;-60
2021/05/14 00:27:33;;;;;;;3.17;2.05;;;;;;;4.84;97.53;96003.34;5003526;28;20369;-59
2021/05/14 00:29:59;;;;;;;5.57;2.40;;;;;;;4.78;97.95;96000.91;5005251;28;20038;-63
2021/05/14 00:32:24;;;;;;;3.65;1.98;;;;;;;4.81;97.49;96002.16;5006111;28;20041;-60
2021/05/14 00:34:49;;;;;;;4.82;2.10;;;;;;;4.86;97.61;95999.19;5001629;28;20144;-56
2021/05/14 00:37:15;;;;;;;3.47;2.00;;;;;;;5.03;97.73;96000.00;4997804;28;20034;-61
2021/05/14 00:39:40;;;;;;;4.88;2.70;;;;;;;5.22;97.32;95999.31;5001009;28;20732;-62
2021/05/14 00:42:06;;;;;;;3.72;2.15;;;;;;;5.32;97.50;95996.88;4980591;28;20073;-63
2021/05/14 00:44:37;;;;;;;3.28;2.13;;;;;;;5.16;95.09;96001.50;5002106;28;20065;-60
2021/05/14 00:47:06;;;;;;;2.88;2.22;;;;;;;4.79;95.89;96002.47;4998953;28;20050;-73
2021/05/14 00:49:31;;;;;;;6.07;2.40;;;;;;;4.64;96.52;96005.94;4985241;28;20042;-63
2021/05/14 00:51:58;;;;;;;4.85;2.03;;;;;;;4.69;96.65;96007.63;4999690;28;20049;-62
2021/05/14 00:54:25;;;;;;;2.72;2.05;;;;;;;4.83;96.56;96010.72;4998354;28;20501;-60
2021/05/14 00:56:51;;;;;;;3.72;2.40;;;;;;;4.90;96.98;96007.41;5001803;28;20065;-65
2021/05/14 00:59:16;;;;;;;4.25;2.40;;;;;;;5.09;96.43;96004.03;4996208;28;20159;-60
2021/05/14 01:01:42;;;;;;;2.15;1.85;;;;;;;5.16;96.11;96002.28;4977265;28;20782;-60
2021/05/14 01:04:07;;;;;;;3.08;1.80;;;;;;;5.18;95.39;96004.66;4989526;28;20049;-63
2021/05/14 01:06:33;;;;;;;3.05;2.00;;;;;;;5.07;94.92;96007.09;5006959;28;20812;-60
2021/05/14 01:08:59;;;;;;;3.78;1.83;;;;;;;4.96;94.47;96003.31;5000165;28;20388;-60
2021/05/14 01:11:25;;;;;;;3.78;2.20;;;;;;;4.86;94.76;96010.03;5000176;28;20045;-60
2021/05/14 01:13:51;;;;;;;4.28;1.83;;;;;;;4.92;94.79;96005.94;5001493;28;20506;-64
2021/05/14 01:16:17;;;;;;;4.97;2.30;;;;;;;5.09;94.95;96007.53;4997140;28;20114;-62
2021/05/14 01:18:42;;;;;;;3.35;2.13;;;;;;;5.14;94.59;96004.56;5002913;28;20045;-61
2021/05/14 01:21:08;;;;;;;3.50;1.58;;;;;;;5.02;93.61;96006.56;4997422;28;20038;-62
2021/05/14 01:23:33;;;;;;;3.17;2.00;;;;;;;4.86;93.52;96001.91;5001237;28;20057;-61
2021/05/14 01:25:59;;;;;;;4.47;2.40;;;;;;;4.71;95.41;96002.63;5002744;28;20095;-62
2021/05/14 01:28:24;;;;;;;4.45;2.63;;;;;;;4.54;97.46;96003.72;4995817;28;20042;-62
2021/05/14 01:30:50;;;;;;;4.75;2.80;;;;;;;4.42;97.21;96004.53;4994054;28;20368;-59
2021/05/14 01:33:15;;;;;;;4.18;2.20;;;;;;;4.33;96.64;96003.88;4997494;28;20042;-59
2021/05/14 01:35:41;;;;;;;3.90;2.17;;;;;;;4.29;96.68;96005.72;5002849;28;20576;-60
2021/05/14 01:38:07;;;;;;;6.18;2.20;;;;;;;4.31;96.39;96004.22;4978850;28;20038;-63
2021/05/14 01:40:37;;;;;;;3.97;2.35;;;;;;;4.28;95.79;96004.91;5003305;28;20133;-62
2021/05/14 01:43:03;;;;;;;6.10;2.28;;;;;;;4.35;96.13;96009.75;5004854;28;20044;-70
2021/05/14 01:45:29;;;;;;;5.57;1.88;;;;;;;4.26;95.00;96000.97;5001138;28;20596;-60
2021/05/14 01:47:55;;;;;;;4.72;2.58;;;;;;;4.18;94.24;96008.09;5001928;28;20122;-60
2021/05/14 01:50:21;;;;;;;3.85;2.20;;;;;;;4.13;94.92;96014.53;4987996;28;20046;-61
2021/05/14 01:52:46;;;;;;;4.80;2.58;;;;;;;4.13;96.38;96014.53;4999891;28;20049;-62
2021/05/14 01:55:12;;;;;;;4.60;2.63;;;;;;;3.76;97.52;96005.66;4986594;28;20129;-61
2021/05/14 01:57:38;;;;;;;3.67;2.25;;;;;;;3.59;98.30;96001.25;4979334;28;20467;-64
2021/05/14 02:00:05;;;;;;;4.40;2.90;;;;;;;3.62;99.37;96011.44;4978312;28;20158;-69
2021/05/14 02:02:31;;;;;;;5.82;2.58;;;;;;;3.64;99.72;96011.88;4983874;28;20376;-61
2021/05/14 02:04:56;;;;;;;5.97;2.55;;;;;;;3.78;99.43;96003.38;4982297;28;20050;-62
2021/05/14 02:07:22;;;;;;;4.63;2.60;;;;;;;4.08;100.00;96003.16;4975668;28;20141;-59
2021/05/14 02:09:47;;;;;;;6.30;3.03;;;;;;;4.35;98.79;96002.41;4981909;28;20562;-58
2021/05/14 02:12:13;;;;;;;4.07;2.30;;;;;;;4.39;97.69;95992.47;4971749;28;20050;-59
2021/05/14 02:14:38;;;;;;;2.65;1.80;;;;;;;4.55;96.94;96002.56;4981169;28;20042;-63
2021/05/14 02:17:04;;;;;;;4.55;2.10;;;;;;;4.65;95.67;95998.59;4979034;28;20153;-68
2021/05/14 02:19:29;;;;;;;3.40;2.15;;;;;;;4.71;94.83;95997.19;4997286;28;20043;-60
2021/05/14 02:21:55;;;;;;;5.57;2.25;;;;;;;4.77;94.40;95995.81;4981921;28;20042;-60
2021/05/14 02:24:20;;;;;;;3.08;1.95;;;;;;;4.85;93.34;95999.53;4975786;28;20043;-60
2021/05/14 02:26:46;;;;;;;3.47;2.42;;;;;;;4.85;92.72;95999.53;4981176;28;20050;-60
2021/05/14 02:29:11;;;;;;;3.88;1.88;;;;;;;4.66;92.24;95992.03;4974357;28;20046;-62
2021/05/14 02:31:37;;;;;;;4.93;2.10;;;;;;;4.57;92.31;95992.16;4981242;28;20051;-63
2021/05/14 02:34:02;;;;;;;5.28;1.70;;;;;;;4.41;91.83;95986.69;4981153;28;20050;-71
2021/05/14 02:36:28;;;;;;;3.65;2.10;;;;;;;4.39;93.08;95987.03;4981382;28;20065;-59
2021/05/14 02:38:53;;;;;;;2.83;2.03;;;;;;;4.44;93.11;95991.41;4985990;28;20053;-63
2021/05/14 02:41:19;;;;;;;4.72;2.05;;;;;;;4.36;92.91;95987.72;4981308;28;20046;-58
2021/05/14 02:43:44;;;;;;;3.67;2.10;;;;;;;4.32;93.44;95983.31;4981354;28;20069;-59
2021/05/14 02:46:10;;;;;;;3.00;1.75;;;;;;;4.35;92.94;95979.94;4975021;28;20536;-60
2021/05/14 02:48:36;;;;;;;2.88;1.92;;;;;;;4.40;92.59;95982.41;4979697;28;20069;-61
2021/05/14 02:51:02;;;;;;;4.50;1.80;;;;;;;4.48;92.20;95986.09;4981586;28;20042;-65
2021/05/14 02:53:28;;;;;;;4.95;2.22;;;;;;;4.50;91.93;95983.81;4996096;28;20132;-63
2021/05/14 02:55:53;;;;;;;3.28;1.77;;;;;;;4.48;91.93;95981.44;5000159;28;20157;-60
2021/05/14 02:58:19;;;;;;;4.90;2.03;;;;;;;4.45;91.44;95990.28;4998388;28;20077;-61
2021/05/14 03:00:45;;;;;;;2.67;1.60;;;;;;;4.46;91.87;95985.66;5006265;28;20042;-60
2021/05/14 03:03:11;;;;;;;3.67;1.48;;;;;;;4.49;91.41;95988.47;4989688;28;20070;-63
2021/05/14 03:05:36;;;;;;;4.72;1.75;;;;;;;4.43;91.47;95989.03;5001324;28;20080;-61
2021/05/14 03:08:02;;;;;;;3.20;1.50;;;;;;;4.36;91.47;95990.44;4999920;28;20063;-69
2021/05/14 03:10:27;;;;;;;3.55;1.90;;;;;;;4.37;91.88;95989.28;4978694;28;20054;-61
2021/05/14 03:12:53;;;;;;;2.42;1.92;;;;;;;4.37;91.47;95993.94;5012069;28;20073;-60
2021/05/14 03:15:19;;;;;;;2.90;1.85;;;;;;;4.35;91.21;95988.84;4974342;28;20104;-63
2021/05/14 03:17:44;;;;;;;2.75;1.80;;;;;;;4.29;91.32;95989.44;5007212;28;20077;-61
2021/05/14 03:20:11;;;;;;;2.42;1.67;;;;;;;4.19;91.24;95996.13;5014292;28;20491;-61
2021/05/14 03:22:37;;;;;;;3.90;2.17;;;;;;;4.21;91.21;95991.13;5001391;28;20049;-59
2021/05/14 03:25:04;;;;;;;3.00;1.55;;;;;;;4.22;91.14;95985.38;5017524;28;20096;-70
2021/05/14 03:27:30;;;;;;;3.67;2.15;;;;;;;4.26;91.29;95987.41;5020835;28;20052;-61
2021/05/14 03:29:56;;;;;;;3.63;1.95;;;;;;;4.26;90.73;95984.69;5019074;28;20046;-60
2021/05/14 03:32:21;;;;;;;3.50;1.63;;;;;;;4.26;90.75;95979.28;4995124;28;20042;-71
2021/05/14 03:34:47;;;;;;;2.70;1.70;;;;;;;4.18;91.02;95979.06;5000848;28;20100;-63
2021/05/14 03:37:12;;;;;;;8.02;2.28;;;;;;;4.15;91.38;95984.38;4992565;28;20088;-73
2021/05/14 03:39:46;;;;;;;2.95;1.70;;;;;;;4.00;90.97;95977.75;4999086;28;20038;-58
2021/05/14 03:44:41;;;;;;;2.55;1.80;;;;;;;4.00;92.06;95973.13;4996422;28;20053;-60
2021/05/14 03:47:07;;;;;;;3.17;1.80;;;;;;;3.91;91.77;95977.88;4995992;28;20618;-60
2021/05/14 03:49:37;;;;;;;2.25;1.60;;;;;;;3.69;90.62;95976.44;5000166;28;20077;-62
2021/05/14 03:52:03;;;;;;;;;;;;;;;3.64;91.27;95979.38;4998931;28;20195;-73
2021/05/14 03:54:29;;;;;;;3.92;1.95;;;;;;;3.73;92.31;95971.13;4998061;28;20012;-58
2021/05/14 03:56:54;;;;;;;7.10;1.95;;;;;;;3.90;93.65;95965.47;4999039;28;20197;-60
2021/05/14 03:59:20;;;;;;;2.90;1.65;;;;;;;4.01;92.76;95966.56;4980920;28;20049;-60
2021/05/14 04:01:45;;;;;;;4.25;1.65;;;;;;;4.05;92.24;95969.38;4997586;28;20076;-66
2021/05/14 04:04:11;;;;;;;3.65;1.90;;;;;;;3.29;94.05;95976.31;4994303;28;20143;-61
2021/05/14 04:06:36;;;;;;;5.13;2.40;;;;;;;2.64;96.61;95979.53;4981965;28;20037;-60
2021/05/14 04:09:04;;;;;;;2.55;2.03;;;;;;;2.57;98.65;95980.06;4999162;28;20042;-72
2021/05/14 04:16:48;;;;;;;3.92;1.92;;;;;;;3.31;98.89;95982.94;5003280;28;20048;-61
2021/05/14 04:19:13;;;;;;;4.43;2.20;;;;;;;3.63;97.45;95985.91;4996175;28;20128;-59
2021/05/14 04:21:39;;;;;;;4.35;2.30;;;;;;;3.82;96.38;95982.63;5003607;28;20042;-60
2021/05/14 04:24:05;;;;;;;3.47;2.17;;;;;;;3.95;95.44;95980.69;4998580;28;20108;-62
2021/05/14 04:26:31;;;;;;;2.42;1.73;;;;;;;4.13;93.83;95973.88;5003186;28;20050;-62
2021/05/14 04:28:57;;;;;;;5.82;1.60;;;;;;;4.19;93.06;95983.34;5003349;28;20052;-60
2021/05/14 04:31:22;;;;;;;2.78;1.83;;;;;;;4.26;92.09;95974.63;4999570;28;20636;-64
2021/05/14 04:33:48;;;;;;;3.70;2.63;;;;;;;4.30;91.66;95978.22;5002193;28;20095;-59
2021/05/14 04:36:14;;;;;;;5.55;2.20;;;;;;;4.42;90.54;95969.28;5006583;28;20096;-63
2021/05/14 04:38:39;;;;;;;4.03;2.13;;;;;;;4.57;89.74;95974.00;5004696;28;20085;-59
2021/05/14 04:41:05;;;;;;;3.80;1.52;;;;;;;4.66;89.09;95984.66;4999385;28;20037;-72
2021/05/14 04:43:30;;;;;;;4.35;1.65;;;;;;;4.73;89.21;95986.78;4985021;28;20494;-57
2021/05/14 04:45:55;;;;;;;2.85;1.80;;;;;;;4.91;89.26;95987.28;5003795;28;20467;-63
2021/05/14 04:48:21;;;;;;;1.77;1.42;;;;;;;5.10;88.70;95995.53;5008266;28;22260;-64
2021/05/14 04:50:46;;;;;;;3.08;1.42;;;;;;;5.14;88.30;95991.00;5017723;28;20045;-66
2021/05/14 04:53:14;;;;;;;5.00;1.50;;;;;;;5.36;88.31;95988.81;5011888;28;20826;-62
2021/05/14 04:55:40;;;;;;;3.92;2.08;;;;;;;5.29;87.58;95989.41;5005113;28;20041;-60
2021/05/14 04:58:05;;;;;;;3.85;1.80;;;;;;;5.66;89.72;95991.09;4991206;28;20048;-63
2021/05/14 05:00:31;;;;;;;5.05;1.63;;;;;;;7.54;87.65;95983.63;5001349;28;20053;-59
2021/05/14 05:02:58;;;;;;;3.20;1.33;;;;;;;10.32;71.35;95980.13;5000775;28;20390;-59
2021/05/14 05:05:24;;;;;;;3.05;1.23;;;;;;;11.93;64.44;95976.28;5019027;28;20621;-69
2021/05/14 05:07:49;;;;;;;2.22;0.90;;;;;;;13.49;56.53;95980.84;5001423;28;20149;-66
2021/05/14 05:10:16;;;;;;;3.22;1.35;;;;;;;14.04;54.74;95976.50;4988976;28;20099;-58
2021/05/14 05:12:42;;;;;;;4.95;1.17;;;;;;;12.72;58.08;95982.38;4999799;28;20052;-62
2021/05/14 05:15:08;;;;;;;2.70;1.00;;;;;;;15.14;53.07;95976.50;4995698;28;20047;-63
2021/05/14 05:17:33;;;;;;;1.83;0.85;;;;;;;17.20;46.45;95966.31;4997726;28;20098;-67
2021/05/14 05:19:59;;;;;;;3.35;0.70;;;;;;;18.68;42.83;95963.56;5003375;28;20495;-63
2021/05/14 05:22:25;;;;;;;2.20;1.42;;;;;;;19.13;39.80;95961.94;4979918;28;20049;-59
2021/05/14 05:24:50;;;;;;;1.90;1.02;;;;;;;16.97;45.03;95967.97;5002068;28;20050;-61
2021/05/14 05:27:16;;;;;;;2.00;1.00;;;;;;;15.46;48.33;95972.50;4996397;28;20076;-64
2021/05/14 05:29:41;;;;;;;2.65;1.15;;;;;;;15.61;49.92;95978.59;5001968;28;20052;-59
2021/05/14 05:32:07;;;;;;;4.30;2.00;;;;;;;15.72;48.48;95984.75;4997692;28;20443;-64
2021/05/14 05:34:33;;;;;;;3.17;1.75;;;;;;;13.75;55.29;95977.50;5006304;28;20096;-65
2021/05/14 05:36:59;;;;;;;1.83;1.05;;;;;;;17.07;47.07;95971.75;5006194;28;20073;-64
2021/05/14 05:39:24;;;;;;;1.85;0.90;;;;;;;19.19;41.72;95974.03;5000214;28;20627;-63
2021/05/14 05:41:49;;;;;;;1.35;0.82;;;;;;;20.48;38.38;95981.13;5002263;28;20056;-60
2021/05/14 05:44:15;;;;;;;2.97;1.00;;;;;;;20.87;39.92;95986.56;4994165;28;20053;-61
2021/05/14 05:46:41;;;;;;;2.90;1.20;;;;;;;20.69;37.98;95985.19;5002510;28;20042;-58
2021/05/14 05:49:06;;;;;;;3.05;1.00;;;;;;;20.39;38.41;95983.81;4995341;28;20060;-64
2021/05/14 05:51:32;;;;;;;1.63;0.80;;;;;;;22.04;36.30;95988.94;4985530;28;20038;-58
2021/05/14 05:53:58;;;;;;;3.13;0.82;;;;;;;23.35;33.65;95982.19;5000202;28;20402;-62
2021/05/14 05:56:25;;;;;;;1.95;0.93;;;;;;;23.81;32.46;95991.25;4996113;28;20045;-61
2021/05/14 05:58:51;;;;;;;2.40;1.00;;;;;;;22.93;34.11;95992.00;4997798;28;20080;-66
2021/05/14 06:01:16;;;;;;;1.35;0.80;;;;;;;23.45;33.24;95992.88;4990922;28;20507;-62
2021/05/14 06:03:42;;;;;;;3.63;1.13;;;;;;;23.54;32.49;96003.28;5000884;28;20038;-68
2021/05/14 06:06:08;;;;;;;1.67;0.73;;;;;;;22.91;34.89;95995.25;4996542;28;20046;-66
2021/05/14 06:08:33;;;;;;;3.97;0.98;;;;;;;23.35;34.27;96002.53;5002039;28;20465;-62
2021/05/14 06:10:59;;;;;;;8.05;2.55;;;;;;;19.68;40.29;96007.88;5001523;28;20151;-62
2021/05/14 06:13:24;;;;;;;2.22;0.90;;;;;;;19.26;42.35;96007.91;4993448;28;20525;-59
2021/05/14 06:15:52;;;;;;;1.63;0.90;;;;;;;21.53;36.66;95997.69;5000577;28;20049;-58
2021/05/14 06:18:18;;;;;;;4.03;1.17;;;;;;;22.57;35.67;95998.34;4961417;28;20125;-61
2021/05/14 06:20:45;;;;;;;1.83;0.90;;;;;;;22.42;35.68;96000.94;5001035;28;20033;-64
2021/05/14 06:23:12;;;;;;;1.97;0.90;;;;;;;22.03;35.57;96001.31;4994627;28;20052;-60
2021/05/14 06:25:38;;;;;;;3.58;0.95;;;;;;;22.79;35.08;96004.56;5001734;28;20038;-63
2021/05/14 06:28:04;;;;;;;2.42;1.10;;;;;;;22.36;35.19;96000.03;4996803;28;20045;-71
2021/05/14 06:30:30;;;;;;;2.67;1.08;;;;;;;22.13;36.45;96005.69;4974251;28;20655;-62
2021/05/14 06:32:55;;;;;;;1.73;0.90;;;;;;;22.79;34.98;96001.00;5002458;28;20045;-62
2021/05/14 06:35:22;;;;;;;2.95;1.10;;;;;;;23.99;33.23;96003.59;4994992;28;20065;-58
2021/05/14 06:37:48;;;;;;;4.43;1.00;;;;;;;25.90;29.89;95998.19;5000952;28;20072;-68
2021/05/14 06:40:14;;;;;;;2.72;0.98;;;;;;;26.31;28.88;96003.16;4993806;28;20133;-66
2021/05/14 06:42:39;;;;;;;3.13;1.00;;;;;;;27.35;27.70;96001.88;4998443;28;20057;-60
2021/05/14 06:45:06;;;;;;;5.20;1.45;;;;;;;25.69;27.48;96008.53;4987162;28;20042;-68
2021/05/14 06:47:31;;;;;;;2.67;1.10;;;;;;;24.76;30.98;96010.66;4995163;28;20072;-63
2021/05/14 06:49:57;;;;;;;1.70;0.80;;;;;;;22.63;34.11;96005.63;4999789;28;20618;-62
2021/05/14 06:52:23;;;;;;;2.13;1.10;;;;;;;22.21;35.70;96011.75;4996868;28;20732;-62
2021/05/14 06:54:48;;;;;;;2.92;1.40;;;;;;;21.61;36.39;96007.34;5000962;28;20045;-65
2021/05/14 06:57:13;;;;;;;6.95;0.80;;;;;;;22.56;31.93;96007.97;4988311;28;20046;-68
2021/05/14 06:59:39;;;;;;;1.63;0.90;;;;;;;22.49;33.46;96006.22;5000876;28;20050;-63
2021/05/14 07:02:04;;;;;;;1.77;1.20;;;;;;;21.10;35.48;96002.03;4997136;28;20045;-69
2021/05/14 07:04:30;;;;;;;1.98;0.88;;;;;;;19.48;37.65;96010.88;4999660;28;20046;-58
2021/05/14 07:06:55;;;;;;;2.10;0.80;;;;;;;18.63;40.04;96011.25;4964097;28;20116;-62
2021/05/14 07:09:21;;;;;;;2.47;0.70;;;;;;;20.69;35.67;96010.25;4976389;28;20042;-58
2021/05/14 07:11:46;;;;;;;3.80;0.70;;;;;;;21.79;33.29;96017.00;4991341;28;20564;-60
2021/05/14 07:14:11;;;;;;;3.35;1.20;;;;;;;22.86;32.00;96009.06;4995186;28;20042;-60
2021/05/14 07:16:37;;;;;;;1.63;0.75;;;;;;;23.58;30.02;96011.50;4998801;28;20462;-64
2021/05/14 07:19:02;;;;;;;1.73;0.60;;;;;;;23.92;28.53;96013.09;4991664;28;20046;-68
2021/05/14 07:21:28;;;;;;;1.75;0.65;;;;;;;21.53;32.51;96014.41;5014910;28;20337;-63
2021/05/14 07:23:53;;;;;;;2.60;0.63;;;;;;;22.72;30.22;96013.25;5005976;28;20433;-61
2021/05/14 07:26:19;;;;;;;1.00;0.70;;;;;;;22.05;31.88;96009.22;4995807;28;20046;-63
2021/05/14 07:28:44;;;;;;;6.15;0.82;;;;;;;22.28;31.04;96002.34;4997543;28;20451;-58
2021/05/14 07:31:10;;;;;;;1.83;0.80;;;;;;;22.45;31.32;96011.97;4988038;28;20046;-63
2021/05/14 07:33:40;;;;;;;1.52;0.60;;;;;;;22.37;31.32;96004.38;4999366;28;20046;-61
2021/05/14 07:36:05;;;;;;;;;;;;;;;22.84;31.38;95997.59;4995494;28;20507;-67
2021/05/14 07:38:31;;;;;;;1.58;0.77;;;;;;;23.26;31.05;95997.75;5000854;28;19967;-65
2021/05/14 07:40:56;;;;;;;1.65;0.80;;;;;;;22.68;30.71;96007.81;5001614;28;20061;-62
2021/05/14 07:43:22;;;;;;;1.98;1.02;;;;;;;21.35;33.46;95999.09;4997067;28;20053;-63
2021/05/14 07:45:47;;;;;;;2.92;0.70;;;;;;;21.59;33.43;95998.66;5004569;28;20435;-63
2021/05/14 07:48:21;;;;;;;1.05;0.70;;;;;;;22.52;32.44;95999.75;4994791;28;20053;-69
2021/05/14 07:50:48;;;;;;;1.10;0.55;;;;;;;22.67;31.43;96005.47;5002405;28;20042;-60
2021/05/14 07:53:14;;;;;;;1.95;0.80;;;;;;;22.45;32.39;96005.63;4997519;28;20088;-63
2021/05/14 07:55:39;;;;;;;2.95;1.08;;;;;;;20.24;36.47;96011.34;5004746;28;20046;-60
2021/05/14 07:58:05;;;;;;;5.10;1.15;;;;;;;22.33;32.84;96002.50;5000387;28;20050;-71
2021/05/14 08:00:30;;;;;;;3.30;0.80;;;;;;;20.07;35.35;96009.91;5003751;28;20038;-65
2021/05/14 08:02:55;;;;;;;1.83;0.68;;;;;;;21.68;33.80;95998.69;4999804;28;20070;-65
2021/05/14 08:05:22;;;;;;;1.50;0.73;;;;;;;23.93;30.12;95999.88;4994399;28;21082;-62
2021/05/14 08:08:12;;;;;;;1.98;0.60;;;;;;;23.85;29.08;95999.47;5018476;28;20398;-63
2021/05/14 08:10:38;;;;;;;1.05;0.50;;;;;;;22.85;31.28;95994.34;5001290;28;20037;-63
2021/05/14 08:13:03;;;;;;;4.70;0.70;;;;;;;21.72;30.84;95995.78;4991561;28;20119;-71
2021/05/14 08:15:30;;;;;;;1.65;0.70;;;;;;;21.44;32.43;96003.19;5001860;28;20030;-61
2021/05/14 08:17:56;;;;;;;1.23;0.57;;;;;;;21.63;32.64;96004.88;4999120;28;20066;-62
2021/05/14 08:20:22;;;;;;;3.63;1.88;;;;;;;22.06;32.60;95994.81;4995563;28;20054;-62
2021/05/14 08:22:50;;;;;;;3.20;1.15;;;;;;;22.14;31.81;95993.28;5003037;28;20042;-65
2021/05/14 08:25:16;;;;;;;1.90;0.60;;;;;;;22.32;30.56;95995.34;4994314;28;20050;-61
2021/05/14 08:27:42;;;;;;;2.08;0.57;;;;;;;21.60;31.70;95994.63;5003641;28;20038;-65
2021/05/14 08:30:10;;;;;;;2.58;0.82;;;;;;;21.00;34.03;95987.28;5001768;28;20050;-64
2021/05/14 08:32:36;;;;;;;0.90;0.50;;;;;;;20.84;33.50;95991.03;4987194;28;20042;-60
2021/05/14 08:35:01;;;;;;;2.25;0.65;;;;;;;21.40;33.77;95989.38;5005040;28;20056;-66
2021/05/14 08:37:27;;;;;;;1.73;0.70;;;;;;;21.37;33.70;95990.28;4999278;28;20515;-63
2021/05/14 08:39:52;;;;;;;1.63;0.57;;;;;;;21.27;33.37;95986.69;4984313;28;20084;-61
2021/05/14 08:42:17;;;;;;;0.93;0.50;;;;;;;21.57;32.27;95989.97;4996920;28;20498;-63
2021/05/14 08:44:43;;;;;;;1.55;0.65;;;;;;;21.82;31.78;95979.84;5002319;28;20047;-64
2021/05/14 08:47:11;;;;;;;3.42;0.82;;;;;;;21.35;32.76;95989.97;4970967;28;20042;-62
2021/05/14 08:49:39;;;;;;;2.13;0.57;;;;;;;19.65;33.72;95992.09;5001184;28;20125;-64
2021/05/14 08:52:07;;;;;;;4.68;0.85;;;;;;;20.58;34.23;95985.53;4991763;28;20065;-72
2021/05/14 08:54:41;;;;;;;1.15;0.40;;;;;;;21.61;31.93;95987.84;5001686;28;20096;-62
2021/05/14 08:57:07;;;;;;;1.65;0.75;;;;;;;21.62;32.79;95983.03;4999773;28;20041;-71
2021/05/14 08:59:32;;;;;;;1.25;0.40;;;;;;;20.39;33.12;95989.38;5001650;28;20042;-62
2021/05/14 09:01:58;;;;;;;1.73;0.63;;;;;;;20.36;33.29;95984.72;5002996;28;20052;-62
2021/05/14 09:04:29;;;;;;;2.92;0.60;;;;;;;20.42;34.79;95977.38;4995035;28;20053;-65
2021/05/14 09:06:56;;;;;;;1.60;0.50;;;;;;;20.84;33.40;95987.47;5000283;28;20061;-64
2021/05/14 09:09:21;;;;;;;3.05;0.38;;;;;;;20.69;32.70;95990.75;4988068;28;20895;-62
2021/05/14 09:11:51;;;;;;;0.70;0.30;;;;;;;20.94;32.62;95987.09;5000919;28;20049;-60
2021/05/14 09:14:44;;;;;;;;;;;;;;;20.40;33.66;95985.34;4996308;28;20038;-61
2021/05/14 09:17:11;;;;;;;1.63;0.50;;;;;;;19.14;35.30;95989.25;4988567;28;19917;-63
2021/05/14 09:19:38;;;;;;;2.28;0.63;;;;;;;19.66;35.77;95992.88;5002805;28;20046;-66
2021/05/14 09:22:29;;;;;;;1.38;0.50;;;;;;;19.92;33.87;95985.34;4991381;28;20045;-70
2021/05/14 09:25:09;;;;;;;1.15;0.50;;;;;;;20.71;32.76;95991.09;4985774;28;20046;-61
2021/05/14 09:27:36;;;;;;;1.08;0.30;;;;;;;20.49;33.02;95985.47;5006707;28;20053;-67
2021/05/14 09:30:08;;;;;;;2.45;0.40;;;;;;;19.74;34.69;95993.47;5011371;28;20073;-70
2021/05/14 09:32:35;;;;;;;0.95;0.38;;;;;;;20.58;32.21;95982.75;4997622;28;20156;-59
2021/05/14 09:35:03;;;;;;;0.60;0.30;;;;;;;20.44;33.08;95991.59;4998327;28;20731;-61
2021/05/14 09:37:29;;;;;;;1.48;0.40;;;;;;;20.26;33.76;95975.50;5013664;28;20029;-61
2021/05/14 09:40:15;;;;;;;1.13;0.55;;;;;;;20.73;33.40;95988.63;5008215;28;20093;-64
2021/05/14 09:42:41;;;;;;;2.47;0.30;;;;;;;20.43;33.87;95982.44;5001457;28;20037;-65
2021/05/14 09:45:22;;;;;;;0.70;0.40;;;;;;;20.13;33.83;95989.44;4992065;28;20503;-65
2021/05/14 09:48:21;;;;;;;0.73;0.32;;;;;;;20.83;32.42;95985.91;5001109;28;20056;-61
2021/05/14 09:50:47;;;;;;;1.13;0.38;;;;;;;21.15;31.36;95982.72;4997872;28;20549;-67
2021/05/14 09:53:18;;;;;;;1.38;0.40;;;;;;;21.48;31.98;95978.78;4989978;28;20050;-67
2021/05/14 09:55:50;;;;;;;2.22;0.50;;;;;;;22.23;31.39;95975.78;5001503;28;20042;-64
2021/05/14 09:58:22;;;;;;;0.95;0.45;;;;;;;22.00;30.47;95976.34;4978047;28;20046;-61
2021/05/14 10:00:48;;;;;;;1.20;0.40;;;;;;;21.38;31.40;95973.13;4993360;28;20092;-67
2021/05/14 10:03:19;;;;;;;0.88;0.30;;;;;;;20.66;32.65;95979.75;4996433;28;20042;-64
2021/05/14 10:05:49;;;;;;;1.90;0.40;;;;;;;21.13;32.18;95981.66;5000456;28;20050;-62
2021/05/14 10:08:18;;;;;;;2.08;0.25;;;;;;;21.47;32.56;95978.00;4990996;28;20038;-64
2021/05/14 10:10:44;;;;;;;4.50;0.60;;;;;;;21.13;32.77;95976.06;4999277;28;20049;-62
2021/05/14 10:13:10;;;;;;;1.88;0.60;;;;;;;21.00;31.63;95976.16;4994787;28;20054;-62
2021/05/14 10:15:37;;;;;;;3.20;0.52;;;;;;;20.39;31.11;95967.91;4992725;28;20391;-60
2021/05/14 10:18:06;;;;;;;3.72;0.55;;;;;;;20.40;32.37;95963.91;4999623;28;20103;-67
2021/05/14 10:20:34;;;;;;;4.78;0.98;;;;;;;20.73;32.08;95965.59;5000519;28;20034;-61
2021/05/14 10:23:02;;;;;;;2.25;0.70;;;;;;;21.09;31.41;95964.31;5001002;28;20042;-61
2021/05/14 10:25:33;;;;;;;1.20;0.65;;;;;;;20.71;31.27;95963.25;4993232;28;20485;-62
2021/05/14 10:28:06;;;;;;;1.30;0.45;;;;;;;20.54;32.09;95959.84;4994352;28;20116;-64
2021/05/14 10:30:31;;;;;;;5.00;0.57;;;;;;;20.62;31.17;95958.41;5001990;28;20046;-61
2021/05/14 10:32:58;;;;;;;1.33;0.40;;;;;;;20.74;32.09;95964.34;5000051;28;20721;-60
2021/05/14 10:35:34;;;;;;;10.40;0.70;;;;;;;20.87;31.03;95945.59;4996596;28;20763;-61
2021/05/14 10:38:07;;;;;;;2.05;0.40;;;;;;;20.83;32.36;95950.50;5001804;28;20104;-58
2021/05/14 10:40:36;;;;;;;2.88;0.50;;;;;;;20.89;31.73;95954.28;4981056;28;20042;-60
2021/05/14 10:43:11;;;;;;;3.00;0.50;;;;;;;20.87;30.22;95942.81;4995625;28;20029;-70
2021/05/14 10:45:42;;;;;;;2.90;0.60;;;;;;;20.51;32.10;95937.69;5000303;28;20054;-60
2021/05/14 10:48:19;;;;;;;4.82;0.50;;;;;;;20.07;33.39;95940.41;4996380;28;20054;-62
2021/05/14 10:51:00;;;;;;;3.85;0.57;;;;;;;20.16;34.09;95946.06;4984407;28;20064;-60
2021/05/14 10:53:31;;;;;;;2.00;0.45;;;;;;;19.68;33.08;95946.78;4993080;28;20123;-65
2021/05/14 10:56:09;;;;;;;3.80;0.70;;;;;;;20.12;32.37;95932.28;4967040;28;20046;-61
2021/05/14 10:58:37;;;;;;;2.63;0.80;;;;;;;20.22;31.45;95933.13;4978661;28;20597;-61
2021/05/14 11:01:04;;;;;;;4.28;1.30;;;;;;;20.43;29.90;95929.59;4973853;28;20046;-62
2021/05/14 11:03:34;;;;;;;1.88;0.68;;;;;;;20.56;28.57;95934.34;4986835;28;20076;-61
2021/05/14 11:06:19;;;;;;;2.72;0.68;;;;;;;20.79;27.76;95922.81;4975055;28;20515;-62
2021/05/14 11:09:06;;;;;;;1.75;0.60;;;;;;;20.52;28.52;95917.03;4987696;28;20046;-65
2021/05/14 11:11:32;;;;;;;3.65;0.50;;;;;;;19.99;28.14;95923.19;4982033;28;20074;-63
2021/05/14 11:14:14;;;;;;;3.65;0.43;;;;;;;20.14;27.35;95915.91;4980593;28;21832;-63
2021/05/14 11:16:44;;;;;;;1.88;0.75;;;;;;;20.08;28.18;95914.94;4974147;28;20039;-63
2021/05/14 11:19:13;;;;;;;4.90;0.60;;;;;;;19.84;28.45;95911.75;4981073;28;20053;-63
2021/05/14 11:21:59;;;;;;;1.52;0.40;;;;;;;19.94;28.48;95918.97;4992407;28;20061;-60
2021/05/14 11:24:42;;;;;;;3.40;0.45;;;;;;;20.24;29.16;95914.03;4980643;28;20355;-59
2021/05/14 11:27:13;;;;;;;10.95;1.60;;;;;;;19.87;28.56;95908.09;4977095;28;20569;-61
2021/05/14 11:29:45;;;;;;;1.27;0.40;;;;;;;19.68;30.48;95915.44;4983039;28;20050;-60
2021/05/14 11:32:21;;;;;;;2.00;0.50;;;;;;;19.67;30.04;95905.53;4985227;28;20046;-63
2021/05/14 11:34:53;;;;;;;2.17;0.60;;;;;;;19.80;32.24;95903.53;4988739;28;20065;-62
2021/05/14 11:37:20;;;;;;;1.58;0.47;;;;;;;19.84;29.69;95911.75;4981869;28;20436;-63
2021/05/14 11:39:45;;;;;;;4.43;2.55;;;;;;;19.99;29.72;95914.88;4977240;28;20057;-62
2021/05/14 11:42:18;;;;;;;1.63;0.50;;;;;;;20.23;30.95;95904.88;4980894;28;20042;-62
2021/05/14 11:45:15;;;;;;;3.50;1.70;;;;;;;19.97;31.44;95914.50;4984648;28;20133;-67